createdAt,value
2023-04-06T05:05:47.365Z,17.90
2023-04-06T05:09:35.166Z,15.50
2023-04-06T05:15:39.087Z,15.23
2023-04-06T05:18:13.996Z,19.95
2023-04-06T05:20:41.444Z,12.68
2023-04-06T05:23:08.209Z,14.27
2023-04-06T05:25:35.512Z,12.93
2023-04-06T05:28:15.113Z,15.88
2023-04-06T05:30:42.113Z,15.80
2023-04-06T05:33:11.309Z,18.98
2023-04-06T05:36:16.442Z,15.52
2023-04-06T05:38:45.989Z,18.60
2023-04-06T05:41:33.073Z,15.85
2023-04-06T05:44:00.315Z,16.92
2023-04-06T05:46:27.839Z,13.10
2023-04-06T05:48:57.034Z,19.67
2023-04-06T05:51:28.133Z,15.10
2023-04-06T05:53:54.833Z,14.18
2023-04-06T05:56:22.751Z,15.18
2023-04-06T05:58:49.793Z,15.25
2023-04-06T06:01:22.799Z,24.23
2023-04-06T06:03:49.599Z,20.58
2023-04-06T06:06:16.761Z,17.85
2023-04-06T06:11:36.202Z,13.77
2023-04-06T06:14:04.302Z,13.50
2023-04-06T06:16:35.079Z,20.90
2023-04-06T06:19:01.966Z,16.30
2023-04-06T06:21:28.861Z,16.55
2023-04-06T06:23:55.803Z,17.13
2023-04-06T06:26:23.953Z,17.70
2023-04-06T06:28:51.157Z,14.73
2023-04-06T06:31:18.040Z,17.20
2023-04-06T06:33:44.958Z,17.60
2023-04-06T06:36:11.759Z,16.27
2023-04-06T06:38:39.754Z,21.60
2023-04-06T06:41:06.830Z,23.17
2023-04-06T06:43:36.155Z,17.80
2023-04-06T06:46:07.431Z,16.42
2023-04-06T06:48:34.426Z,17.98
2023-04-06T06:51:01.285Z,24.40
2023-04-06T06:53:28.274Z,21.42
2023-04-06T06:55:55.960Z,17.90
2023-04-06T06:58:23.390Z,14.77
2023-04-06T07:00:50.239Z,18.83
2023-04-06T07:03:17.000Z,16.33
2023-04-06T07:05:54.301Z,16.23
2023-04-06T07:08:23.521Z,27.08
2023-04-06T07:10:53.623Z,21.50
2023-04-06T07:13:24.974Z,13.07
2023-04-06T07:15:55.183Z,14.48
2023-04-06T07:18:23.099Z,19.42
2023-04-06T07:20:49.974Z,26.20
2023-04-06T07:23:17.624Z,19.98
2023-04-06T07:25:45.706Z,15.13
2023-04-06T07:28:12.594Z,15.57
2023-04-06T07:30:39.634Z,18.48
2023-04-06T07:33:07.035Z,16.38
2023-04-06T07:35:37.495Z,22.63
2023-04-06T07:38:05.007Z,16.15
2023-04-06T07:40:35.647Z,14.43
2023-04-06T07:43:03.505Z,15.80
2023-04-06T07:45:31.006Z,14.10
2023-04-06T07:47:58.542Z,12.43
2023-04-06T07:50:26.969Z,18.83
2023-04-06T07:52:54.649Z,14.82
2023-04-06T07:55:23.737Z,14.18
2023-04-06T07:57:51.515Z,15.82
2023-04-06T08:00:18.601Z,19.45
2023-04-06T08:02:45.568Z,10.07
2023-04-06T08:05:12.566Z,11.27
2023-04-06T08:07:39.391Z,16.25
2023-04-06T08:10:06.408Z,12.32
2023-04-06T08:12:34.993Z,10.75
2023-04-06T08:15:03.717Z,9.82
2023-04-06T08:17:33.157Z,11.80
2023-04-06T08:20:00.372Z,10.52
2023-04-06T08:22:27.222Z,10.70
2023-04-06T08:24:54.018Z,12.80
2023-04-06T08:27:22.880Z,9.50
2023-04-06T08:29:52.090Z,14.18
2023-04-06T08:32:18.924Z,16.05
2023-04-06T08:34:45.636Z,12.98
2023-04-06T08:37:12.325Z,11.93
2023-04-06T08:39:39.046Z,11.82
2023-04-06T08:42:11.239Z,9.57
2023-04-06T08:44:38.774Z,13.90
2023-04-06T08:47:06.690Z,9.85
2023-04-06T08:49:35.518Z,9.38
2023-04-06T08:52:02.539Z,10.95
2023-04-06T08:54:29.302Z,11.52
2023-04-06T08:56:57.411Z,11.90
2023-04-06T08:59:25.884Z,12.98
2023-04-06T09:01:53.920Z,10.05
2023-04-06T09:04:21.110Z,12.90
2023-04-06T09:06:47.957Z,11.40
2023-04-06T09:09:14.749Z,11.30
2023-04-06T09:11:50.089Z,12.13
2023-04-06T09:14:17.837Z,12.50
2023-04-06T09:16:46.368Z,12.90
2023-04-06T09:19:13.814Z,9.73
2023-04-06T09:21:43.253Z,12.07
2023-04-06T09:24:10.470Z,12.73
2023-04-06T09:26:48.261Z,11.75
2023-04-06T09:29:27.976Z,11.98
2023-04-06T09:32:07.532Z,10.73
2023-04-06T09:34:35.224Z,11.23
2023-04-06T09:37:14.759Z,10.85
2023-04-06T09:39:41.960Z,13.63
2023-04-06T09:42:09.305Z,14.32
2023-04-06T09:44:37.152Z,11.90
2023-04-06T09:47:08.949Z,11.43
2023-04-06T09:49:36.369Z,9.88
2023-04-06T09:52:05.385Z,16.83
2023-04-06T09:54:35.029Z,14.68
2023-04-06T09:57:23.407Z,10.88
2023-04-06T10:00:15.247Z,11.73
2023-04-06T10:03:02.143Z,13.60
2023-04-06T10:05:43.120Z,11.32
2023-04-06T10:08:14.408Z,12.90
2023-04-06T10:10:44.659Z,11.63
2023-04-06T10:13:12.881Z,11.60
2023-04-06T10:15:43.204Z,11.50
2023-04-06T10:18:10.437Z,12.25
2023-04-06T10:20:49.289Z,13.93
2023-04-06T10:23:27.591Z,10.45
2023-04-06T10:25:55.730Z,11.30
2023-04-06T10:28:23.110Z,10.93
2023-04-06T10:30:50.154Z,11.25
2023-04-06T10:33:21.264Z,11.73
2023-04-06T10:35:48.235Z,11.77
2023-04-06T10:38:21.959Z,10.20
2023-04-06T10:40:51.380Z,12.63
2023-04-06T10:43:23.258Z,12.82
2023-04-06T10:46:02.029Z,12.13
2023-04-06T10:48:47.440Z,10.90
2023-04-06T10:51:16.078Z,11.02
2023-04-06T10:53:46.328Z,15.55
2023-04-06T10:56:14.580Z,12.73
2023-04-06T10:58:56.911Z,13.15
2023-04-06T11:01:27.707Z,11.40
2023-04-06T11:04:00.518Z,18.98
2023-04-06T11:06:34.349Z,11.60
2023-04-06T11:09:01.238Z,15.38
2023-04-06T11:11:29.149Z,13.30
2023-04-06T11:14:00.658Z,13.95
2023-04-06T11:16:30.280Z,17.48
2023-04-06T11:19:01.382Z,12.63
2023-04-06T11:21:44.679Z,11.45
2023-04-06T11:24:20.771Z,15.68
2023-04-06T11:26:57.651Z,11.77
2023-04-06T11:29:32.189Z,15.43
2023-04-06T11:32:05.233Z,12.90
2023-04-06T11:34:39.788Z,12.57
2023-04-06T11:37:12.631Z,14.60
2023-04-06T11:39:41.753Z,12.63
2023-04-06T11:42:09.353Z,13.00
2023-04-06T11:44:50.472Z,17.30
2023-04-06T11:47:20.482Z,12.52
2023-04-06T11:49:48.370Z,14.27
2023-04-06T11:52:23.222Z,11.63
2023-04-06T11:54:54.430Z,16.98
2023-04-06T11:57:25.194Z,12.80
2023-04-06T12:00:01.824Z,13.18
2023-04-06T12:02:33.543Z,13.73
2023-04-06T12:05:04.715Z,13.50
2023-04-06T12:10:13.900Z,13.40
2023-04-06T12:12:43.799Z,15.30
2023-04-06T12:15:11.118Z,14.27
2023-04-06T12:17:37.986Z,15.23
2023-04-06T12:20:13.483Z,14.40
2023-04-06T12:22:51.638Z,15.43
2023-04-06T12:25:18.544Z,15.20
2023-04-06T12:27:45.506Z,14.15
2023-04-06T12:30:15.676Z,13.52
2023-04-06T12:32:42.588Z,16.35
2023-04-06T12:35:10.517Z,13.43
2023-04-06T12:37:45.002Z,12.38
2023-04-06T12:40:12.878Z,11.50
2023-04-06T12:42:42.623Z,15.45
2023-04-06T12:45:10.641Z,14.10
2023-04-06T12:47:44.191Z,14.13
2023-04-06T12:50:11.520Z,13.82
2023-04-06T12:52:38.570Z,15.18
2023-04-06T12:55:07.123Z,13.85
2023-04-06T12:57:34.258Z,13.18
2023-04-06T13:00:11.671Z,14.45
2023-04-06T13:02:39.771Z,12.07
2023-04-06T13:05:13.083Z,11.90
2023-04-06T13:07:41.316Z,11.38
2023-04-06T13:10:08.880Z,14.88
2023-04-06T13:12:38.189Z,13.73
2023-04-06T13:15:08.086Z,13.88
2023-04-06T13:17:34.829Z,11.30
2023-04-06T13:20:01.717Z,15.52
2023-04-06T13:22:28.609Z,15.20
2023-04-06T13:24:55.855Z,16.17
2023-04-06T13:27:25.340Z,12.05
2023-04-06T13:29:54.635Z,12.88
2023-04-06T13:32:28.375Z,13.70
2023-04-06T13:34:58.809Z,14.73
2023-04-06T13:37:25.759Z,12.27
2023-04-06T13:39:52.716Z,12.27
2023-04-06T13:42:19.865Z,16.15
2023-04-06T13:44:47.902Z,12.20
2023-04-06T13:47:16.324Z,10.70
2023-04-06T13:49:44.799Z,12.30
2023-04-06T13:52:11.837Z,12.75
2023-04-06T13:54:39.251Z,13.15
2023-04-06T13:57:07.282Z,13.05
2023-04-06T13:59:37.404Z,13.43
2023-04-06T14:02:06.010Z,13.18
2023-04-06T14:04:33.146Z,15.73
2023-04-06T14:07:02.960Z,13.10
2023-04-06T14:09:31.206Z,16.30
2023-04-06T14:11:58.504Z,13.07
2023-04-06T14:14:30.600Z,12.82
2023-04-06T14:17:28.193Z,11.57
2023-04-06T14:22:51.833Z,12.60
2023-04-06T14:34:43.066Z,13.20
2023-04-06T14:46:35.121Z,12.63
2023-04-06T15:08:34.728Z,11.90
2023-04-06T15:11:22.746Z,11.43
2023-04-06T15:14:14.189Z,11.27
2023-04-06T15:21:24.378Z,12.10
2023-04-06T15:24:15.070Z,13.18
2023-04-06T15:27:00.848Z,11.95
2023-04-06T15:32:55.588Z,12.30
2023-04-06T15:36:25.220Z,11.10
2023-04-06T15:39:32.534Z,12.32
2023-04-06T15:42:49.256Z,15.00
2023-04-06T15:45:22.796Z,11.32
2023-04-06T15:48:11.264Z,11.70
2023-04-06T15:50:48.683Z,11.10
2023-04-06T15:53:16.102Z,14.23
2023-04-06T15:55:45.486Z,14.20
2023-04-06T15:58:12.319Z,12.88
2023-04-06T16:00:39.130Z,15.18
2023-04-06T16:03:06.074Z,13.23
2023-04-06T16:05:34.781Z,14.68
2023-04-06T16:08:06.868Z,13.40
2023-04-06T16:10:33.686Z,12.05
2023-04-06T16:13:00.645Z,16.63
2023-04-06T16:15:27.495Z,14.02
2023-04-06T16:17:54.322Z,11.63
2023-04-06T16:20:21.146Z,16.05
2023-04-06T16:22:49.705Z,14.23
2023-04-06T16:25:16.831Z,13.07
2023-04-06T16:27:43.544Z,11.52
2023-04-06T16:30:11.053Z,13.55
2023-04-06T16:32:38.260Z,11.93
2023-04-06T16:35:05.387Z,13.00
2023-04-06T16:37:32.195Z,12.95
2023-04-06T16:39:59.320Z,13.25
2023-04-06T16:42:26.185Z,13.40
2023-04-06T16:44:52.832Z,13.52
2023-04-06T16:47:19.569Z,13.80
2023-04-06T16:49:46.528Z,11.50
2023-04-06T16:52:13.498Z,15.68
2023-04-06T16:54:43.317Z,12.57
2023-04-06T16:57:10.377Z,13.32
2023-04-06T16:59:37.238Z,13.20
2023-04-06T17:02:04.038Z,13.90
2023-04-06T17:04:30.768Z,11.88
2023-04-06T17:06:57.621Z,14.43
2023-04-06T17:09:25.288Z,10.35
2023-04-06T17:11:52.299Z,12.63
2023-04-06T17:14:19.117Z,13.90
2023-04-06T17:16:45.991Z,12.02
2023-04-06T17:19:12.956Z,13.40
2023-04-06T17:21:42.028Z,16.23
2023-04-06T17:24:09.428Z,12.98
2023-04-06T17:26:36.364Z,14.52
2023-04-06T17:29:03.548Z,15.25
2023-04-06T17:31:30.395Z,15.32
2023-04-06T17:33:57.171Z,13.88
2023-04-06T17:36:24.504Z,16.00
2023-04-06T17:38:51.315Z,14.35
2023-04-06T17:41:18.255Z,16.23
2023-04-06T17:43:45.554Z,14.95
2023-04-06T17:46:13.034Z,16.17
2023-04-06T17:48:40.094Z,19.83
2023-04-06T17:51:08.896Z,13.63
2023-04-06T17:53:36.816Z,14.00
2023-04-06T17:56:04.797Z,13.32
2023-04-06T17:58:31.673Z,14.85
2023-04-06T18:00:58.428Z,16.05
2023-04-06T18:03:25.522Z,15.55
2023-04-06T18:05:52.596Z,13.95
2023-04-06T18:08:19.360Z,17.48
2023-04-06T18:10:48.377Z,15.85
2023-04-06T18:13:15.661Z,16.27
2023-04-06T18:15:42.500Z,16.45
2023-04-06T18:18:09.332Z,16.42
2023-04-06T18:20:41.013Z,17.60
2023-04-06T18:23:08.060Z,16.98
2023-04-06T18:25:41.721Z,17.58
2023-04-06T18:28:11.477Z,19.40
2023-04-06T18:30:38.319Z,17.35
2023-04-06T18:33:06.692Z,27.35
2023-04-06T18:35:33.817Z,17.92
2023-04-06T18:38:00.643Z,19.17
2023-04-06T18:40:46.393Z,19.80
2023-04-06T18:43:14.999Z,15.73
2023-04-06T18:45:43.551Z,15.13
2023-04-06T18:48:10.859Z,17.90
2023-04-06T18:50:52.087Z,17.88
2023-04-06T18:53:18.975Z,18.27
2023-04-06T18:55:50.095Z,15.52
2023-04-06T18:58:20.047Z,16.75
2023-04-06T19:00:46.858Z,15.05
2023-04-06T19:03:13.925Z,16.58
2023-04-06T19:05:41.821Z,20.02
2023-04-06T19:08:09.093Z,16.58
2023-04-06T19:10:37.379Z,18.38
2023-04-06T19:13:04.960Z,18.45
2023-04-06T19:15:31.766Z,15.98
2023-04-06T19:17:58.530Z,27.90
2023-04-06T19:20:27.351Z,15.35
2023-04-06T19:25:20.908Z,15.88
2023-04-06T19:27:48.576Z,19.05
2023-04-06T19:30:15.296Z,19.60
2023-04-06T19:32:42.157Z,18.33
2023-04-06T19:35:09.109Z,16.40
2023-04-06T19:37:37.841Z,15.30
2023-04-06T19:40:12.248Z,20.33
2023-04-06T19:42:38.998Z,18.42
2023-04-06T19:45:06.719Z,16.48
2023-04-06T19:47:34.797Z,14.93
2023-04-06T19:50:05.537Z,15.85
2023-04-06T19:52:32.835Z,15.52
2023-04-06T19:55:00.145Z,16.77
2023-04-06T19:57:27.778Z,17.30
2023-04-06T19:59:55.516Z,20.70
2023-04-06T20:02:23.007Z,19.85
2023-04-06T20:04:49.948Z,22.67
2023-04-06T20:07:16.849Z,22.13
2023-04-06T20:09:43.687Z,27.77
2023-04-06T20:12:10.594Z,28.17
2023-04-06T20:14:37.618Z,30.80
2023-04-06T20:17:04.439Z,29.63
2023-04-06T20:19:31.318Z,27.63
2023-04-06T20:21:59.332Z,30.17
2023-04-06T20:24:26.131Z,30.17
